メインページ
METAR-TAF:

METAR-TAF

空港 :

Dutchess County Airport

Poughkeepsie, ニューヨーク, アメリカ合衆国

緯度: 41-37-36N, 経度: 073-53-03W, 海抜: 50m

現時点の気象観測

当レポートは13分前の15:53(UTC)に作成
無風
気温 -8°C
湿度 48%
気圧 1031 hPa
視程: 16.1km
高度6000ftの雲はほとんどない
高度8000ftの雲は散在している
高度10000ftの雲は散在している

METAR: KPOU 181553Z 00000KT 10SM FEW060 SCT080 SCT100 M08/M17 A3046 RMK AO2 SLP314 T10781167

時間: 11:06 (16:06 UTC)

予報

当レポートは4時間40分前の11:26(UTC)に作成
予報は18日の 12時(UTC)から 19日の 12時(UTC)まで有効
の風 kt
視程: 10km
高度12000ftの雲は散在している
高度25000ftの曇り
18日の 1500時(UTC)から
の風 3kt
視程: 10km
高度10000ftの曇り
18日の 1900時(UTC)から
の風 5kt
視程: 3.2km
高度2000ftの曇り
小雪, 靄
18日の 2100時(UTC)から
の風 5kt
視程: 1.6km
高度1000ftの曇り
小雪, 靄
19日の 0200時(UTC)から
南/南東の風 3kt
視程: 6.4km
高度1200ftの曇り

TAF: KPOU 181126Z 1812/1912 00000KT P6SM SCT120 OVC250 FM181500 18003KT P6SM OVC100 FM181900 18005KT 2SM -SN BR OVC020 FM182100 18005KT 1SM -SN BR OVC010 FM190200 16003KT 4SM BR OVC012

4,000以上の空港の気象観測と天気予報(METAR報とTAF報)

利用可能な観測所は地図上に黄色い丸と赤い丸で示す。

丸の上にカーソルを重ねると観測所名を参照できる。

次にクリックすると気象観測と天気予報を参照できる。

マップの切り替え:黒色「×」印の緑ボタンをクリックして拡大、「-」印の緑ボタンをクリックして縮小、緑色の三角印をクリックして隣りの地図に切り替え


METAR-TAF: